createdAt,value
2023-01-20T00:01:30.672Z,100435.75
2023-01-20T00:03:58.038Z,100435.34
2023-01-20T00:06:28.047Z,100436.53
2023-01-20T00:08:57.079Z,100439.81
2023-01-20T00:11:24.877Z,100439.91
2023-01-20T00:13:55.896Z,100438.50
2023-01-20T00:16:25.930Z,100434.59
2023-01-20T00:18:53.623Z,100444.38
2023-01-20T00:21:20.423Z,100450.28
2023-01-20T00:23:47.822Z,100447.63
2023-01-20T00:26:16.661Z,100446.47
2023-01-20T00:28:44.020Z,100457.16
2023-01-20T00:31:16.834Z,100460.63
2023-01-20T00:33:44.165Z,100457.63
2023-01-20T00:36:11.749Z,100460.16
2023-01-20T00:38:40.712Z,100463.31
2023-01-20T00:41:07.739Z,100459.09
2023-01-20T00:43:37.577Z,100466.00
2023-01-20T00:46:05.537Z,100466.06
2023-01-20T00:48:32.357Z,100466.69
2023-01-20T00:51:02.456Z,100468.50
2023-01-20T00:53:32.164Z,100469.69
2023-01-20T00:56:01.701Z,100464.22
2023-01-20T00:58:29.750Z,100475.94
2023-01-20T01:01:01.174Z,100473.72
2023-01-20T01:03:30.717Z,100474.16
2023-01-20T01:06:17.059Z,100475.94
2023-01-20T01:08:44.232Z,100475.69
2023-01-20T01:11:13.827Z,100475.06
2023-01-20T01:13:41.042Z,100484.31
2023-01-20T01:16:16.695Z,100480.16
2023-01-20T01:18:43.470Z,100484.53
2023-01-20T01:21:13.096Z,100489.31
2023-01-20T01:23:42.829Z,100497.47
2023-01-20T01:26:13.464Z,100492.25
2023-01-20T01:28:43.207Z,100497.47
2023-01-20T01:31:12.362Z,100502.00
2023-01-20T01:33:41.099Z,100494.97
2023-01-20T01:36:12.067Z,100497.88
2023-01-20T01:38:40.752Z,100498.53
2023-01-20T01:41:07.525Z,100505.75
2023-01-20T01:43:37.074Z,100510.47
2023-01-20T01:46:04.221Z,100504.91
2023-01-20T01:48:41.598Z,100514.31
2023-01-20T01:51:13.136Z,100522.19
2023-01-20T01:53:42.852Z,100523.72
2023-01-20T01:56:12.756Z,100528.19
2023-01-20T01:58:44.781Z,100521.81
2023-01-20T02:01:12.114Z,100527.03
2023-01-20T02:03:45.147Z,100528.72
2023-01-20T02:06:12.195Z,100528.53
2023-01-20T02:08:38.831Z,100530.38
2023-01-20T02:11:05.621Z,100526.66
2023-01-20T02:13:33.265Z,100530.31
2023-01-20T02:16:28.639Z,100532.84
2023-01-20T02:18:55.637Z,100535.22
2023-01-20T02:21:47.085Z,100539.84
2023-01-20T02:24:22.649Z,100544.41
2023-01-20T02:26:54.268Z,100539.72
2023-01-20T02:29:51.709Z,100542.75
2023-01-20T02:32:39.133Z,100541.72
2023-01-20T02:35:19.910Z,100543.28
2023-01-20T02:38:07.145Z,100551.69
2023-01-20T02:40:57.389Z,100553.16
2023-01-20T02:43:35.525Z,100547.72
2023-01-20T02:46:12.535Z,100550.00
2023-01-20T02:48:49.537Z,100557.00
2023-01-20T02:51:27.915Z,100561.47
2023-01-20T02:54:01.994Z,100551.84
2023-01-20T02:56:32.368Z,100560.84
2023-01-20T02:59:11.461Z,100555.69
2023-01-20T03:01:42.645Z,100558.09
2023-01-20T03:04:10.897Z,100550.25
2023-01-20T03:06:42.713Z,100562.09
2023-01-20T03:09:11.669Z,100557.41
2023-01-20T03:11:42.453Z,100547.56
2023-01-20T03:14:12.217Z,100556.53
2023-01-20T03:16:39.454Z,100552.56
2023-01-20T03:19:06.077Z,100553.19
2023-01-20T03:21:33.405Z,100556.44
2023-01-20T03:24:01.658Z,100559.25
2023-01-20T03:26:28.516Z,100556.91
2023-01-20T03:28:55.671Z,100570.56
2023-01-20T03:31:51.778Z,100575.44
2023-01-20T03:34:20.191Z,100579.09
2023-01-20T03:36:47.291Z,100579.06
2023-01-20T03:39:14.041Z,100573.28
2023-01-20T03:41:49.355Z,100585.28
2023-01-20T03:44:40.748Z,100587.59
2023-01-20T03:47:13.259Z,100588.19
2023-01-20T03:49:51.824Z,100589.28
2023-01-20T03:52:21.663Z,100591.53
2023-01-20T03:54:55.722Z,100596.69
2023-01-20T03:57:26.495Z,100598.28
2023-01-20T03:59:53.492Z,100600.00
2023-01-20T04:02:20.867Z,100604.47
2023-01-20T04:04:49.098Z,100597.59
2023-01-20T04:07:21.970Z,100596.09
2023-01-20T04:09:52.773Z,100591.88
2023-01-20T04:12:19.827Z,100586.56
2023-01-20T04:14:46.449Z,100590.69
2023-01-20T04:17:15.382Z,100596.63
2023-01-20T04:19:41.986Z,100592.47
2023-01-20T04:22:11.657Z,100595.13
2023-01-20T04:24:58.311Z,100588.59
2023-01-20T04:27:24.955Z,100595.88
2023-01-20T04:29:54.305Z,100596.47
2023-01-20T04:32:21.000Z,100593.41
2023-01-20T04:34:50.656Z,100600.00
2023-01-20T04:37:17.309Z,100605.25
2023-01-20T04:39:43.953Z,100600.63
2023-01-20T04:42:11.489Z,100602.44
2023-01-20T04:44:38.088Z,100606.94
2023-01-20T04:47:05.065Z,100611.22
2023-01-20T04:49:31.656Z,100597.97
2023-01-20T04:52:00.553Z,100598.69
2023-01-20T04:54:27.221Z,100607.16
2023-01-20T04:56:53.807Z,100618.50
2023-01-20T04:59:20.418Z,100616.59
2023-01-20T05:01:47.160Z,100617.16
2023-01-20T05:04:16.656Z,100618.13
2023-01-20T05:06:44.963Z,100614.06
2023-01-20T05:09:15.617Z,100620.94
2023-01-20T05:11:43.584Z,100629.59
2023-01-20T05:14:11.722Z,100626.97
2023-01-20T05:16:38.350Z,100630.34
2023-01-20T05:19:05.118Z,100634.84
2023-01-20T05:21:31.849Z,100634.41
2023-01-20T05:23:58.472Z,100645.59
2023-01-20T05:26:25.857Z,100639.97
2023-01-20T05:28:53.023Z,100642.06
2023-01-20T05:31:19.681Z,100645.94
2023-01-20T05:33:46.399Z,100642.91
2023-01-20T05:36:13.021Z,100643.97
2023-01-20T05:38:39.667Z,100644.19
2023-01-20T05:41:08.978Z,100644.28
2023-01-20T05:43:36.337Z,100647.56
2023-01-20T05:46:03.744Z,100655.78
2023-01-20T05:48:30.913Z,100652.91
2023-01-20T05:50:57.507Z,100665.47
2023-01-20T05:53:24.139Z,100667.09
2023-01-20T05:55:58.794Z,100666.44
2023-01-20T05:58:25.404Z,100668.69
2023-01-20T06:00:52.027Z,100670.78
2023-01-20T06:03:18.612Z,100674.97
2023-01-20T06:05:45.196Z,100683.66
2023-01-20T06:08:11.796Z,100680.94
2023-01-20T06:10:38.363Z,100687.38
2023-01-20T06:13:05.205Z,100688.91
2023-01-20T06:15:31.848Z,100692.28
2023-01-20T06:17:58.878Z,100696.03
2023-01-20T06:20:25.507Z,100693.06
2023-01-20T06:22:56.049Z,100693.03
2023-01-20T06:25:22.674Z,100696.94
2023-01-20T06:27:49.547Z,100694.00
2023-01-20T06:30:16.646Z,100689.63
2023-01-20T06:32:43.182Z,100694.91
2023-01-20T06:35:11.369Z,100698.56
2023-01-20T06:37:38.031Z,100705.19
2023-01-20T06:40:06.616Z,100699.00
2023-01-20T06:42:33.208Z,100700.50
2023-01-20T06:44:59.752Z,100697.84
2023-01-20T06:47:26.353Z,100699.63
2023-01-20T06:49:52.947Z,100703.47
2023-01-20T06:52:19.527Z,100711.50
2023-01-20T06:54:46.137Z,100713.50
2023-01-20T06:57:12.728Z,100704.78
2023-01-20T06:59:39.292Z,100714.78
2023-01-20T07:02:06.500Z,100716.69
2023-01-20T07:04:33.180Z,100718.28
2023-01-20T07:07:00.654Z,100717.75
2023-01-20T07:09:27.297Z,100718.59
2023-01-20T07:11:54.734Z,100718.63
2023-01-20T07:14:21.745Z,100714.81
2023-01-20T07:16:48.339Z,100719.81
2023-01-20T07:19:15.028Z,100712.78
2023-01-20T07:21:41.606Z,100723.38
2023-01-20T07:24:09.288Z,100725.44
2023-01-20T07:26:36.376Z,100730.59
2023-01-20T07:29:02.973Z,100732.25
2023-01-20T07:31:31.508Z,100734.09
2023-01-20T07:33:58.321Z,100738.75
2023-01-20T07:36:25.034Z,100739.03
2023-01-20T07:38:52.534Z,100742.69
2023-01-20T07:41:20.120Z,100750.53
2023-01-20T07:43:48.642Z,100755.03
2023-01-20T07:46:16.595Z,100751.31
2023-01-20T07:48:43.364Z,100751.78
2023-01-20T07:51:12.583Z,100759.13
2023-01-20T07:53:41.291Z,100758.09
2023-01-20T07:56:10.898Z,100767.94
2023-01-20T07:58:37.770Z,100767.59
2023-01-20T08:01:12.627Z,100767.16
2023-01-20T08:03:39.769Z,100766.41
2023-01-20T08:06:08.931Z,100773.66
2023-01-20T08:08:35.923Z,100770.03
2023-01-20T08:11:03.116Z,100769.25
2023-01-20T08:13:30.157Z,100773.75
2023-01-20T08:15:59.821Z,100784.84
2023-01-20T08:18:26.511Z,100793.72
2023-01-20T08:20:55.194Z,100794.56
2023-01-20T08:23:21.770Z,100795.72
2023-01-20T08:25:48.339Z,100806.59
2023-01-20T08:28:14.945Z,100807.97
2023-01-20T08:30:41.651Z,100811.41
2023-01-20T08:33:08.420Z,100809.69
2023-01-20T08:35:36.365Z,100808.03
2023-01-20T08:38:03.538Z,100811.31
2023-01-20T08:40:30.160Z,100808.78
2023-01-20T08:42:56.879Z,100807.38
2023-01-20T08:45:23.822Z,100815.31
2023-01-20T08:47:50.488Z,100823.44
2023-01-20T08:50:17.542Z,100822.00
2023-01-20T08:52:44.246Z,100829.66
2023-01-20T08:55:10.911Z,100835.72
2023-01-20T08:57:37.540Z,100833.28
2023-01-20T09:00:06.207Z,100828.56
2023-01-20T09:02:32.895Z,100829.78
2023-01-20T09:04:59.785Z,100837.19
2023-01-20T09:07:27.083Z,100836.91
2023-01-20T09:09:53.728Z,100832.75
2023-01-20T09:12:22.393Z,100834.72
2023-01-20T09:14:49.062Z,100841.41
2023-01-20T09:17:15.729Z,100835.91
2023-01-20T09:19:42.346Z,100831.25
2023-01-20T09:22:08.988Z,100841.75
2023-01-20T09:24:35.569Z,100839.53
2023-01-20T09:27:02.289Z,100842.13
2023-01-20T09:29:29.121Z,100836.09
2023-01-20T09:31:59.354Z,100834.19
2023-01-20T09:34:27.626Z,100838.72
2023-01-20T09:37:19.163Z,100838.81
2023-01-20T09:40:04.891Z,100835.47
2023-01-20T09:43:02.505Z,100837.25
2023-01-20T09:45:38.797Z,100837.19
2023-01-20T09:49:05.287Z,100837.69
2023-01-20T09:52:13.696Z,100838.34
2023-01-20T09:55:09.795Z,100840.63
2023-01-20T09:57:40.873Z,100842.34
2023-01-20T10:00:14.468Z,100844.34
2023-01-20T10:02:42.248Z,100844.78
2023-01-20T10:05:13.813Z,100845.75
2023-01-20T10:07:51.372Z,100850.94
2023-01-20T10:10:38.230Z,100852.59
2023-01-20T10:13:16.049Z,100845.81
2023-01-20T10:15:47.140Z,100853.50
2023-01-20T10:18:22.109Z,100848.91
2023-01-20T10:21:02.373Z,100843.00
2023-01-20T10:23:30.597Z,100840.22
2023-01-20T10:26:17.265Z,100845.06
2023-01-20T10:28:53.425Z,100848.56
2023-01-20T10:31:26.497Z,100844.09
2023-01-20T10:33:56.028Z,100844.16
2023-01-20T10:36:29.798Z,100846.09
2023-01-20T10:39:05.956Z,100839.06
2023-01-20T10:41:39.517Z,100841.91
2023-01-20T10:44:12.039Z,100842.44
2023-01-20T10:46:50.704Z,100830.34
2023-01-20T10:49:32.239Z,100831.69
2023-01-20T10:52:12.390Z,100841.13
2023-01-20T10:54:45.144Z,100836.63
2023-01-20T10:57:13.893Z,100840.66
2023-01-20T10:59:47.069Z,100841.09
2023-01-20T11:02:20.086Z,100836.78
2023-01-20T11:04:51.784Z,100839.81
2023-01-20T11:07:19.005Z,100842.88
2023-01-20T11:09:47.817Z,100842.03
2023-01-20T11:12:17.185Z,100839.03
2023-01-20T11:14:45.342Z,100842.59
2023-01-20T11:17:18.665Z,100839.53
2023-01-20T11:19:47.254Z,100843.94
2023-01-20T11:22:20.684Z,100844.25
2023-01-20T11:24:48.024Z,100840.06
2023-01-20T11:27:18.037Z,100844.72
2023-01-20T11:30:02.612Z,100838.72
2023-01-20T11:32:33.341Z,100832.88
2023-01-20T11:35:01.417Z,100832.94
2023-01-20T11:37:39.137Z,100832.53
2023-01-20T11:40:30.736Z,100831.56
2023-01-20T11:42:57.529Z,100833.25
2023-01-20T11:45:35.692Z,100838.91
2023-01-20T11:48:16.520Z,100842.22
2023-01-20T11:50:50.874Z,100834.84
2023-01-20T11:53:17.757Z,100829.44
2023-01-20T11:56:25.104Z,100825.25
2023-01-20T11:59:01.900Z,100829.38
2023-01-20T12:01:31.309Z,100829.06
2023-01-20T12:04:28.943Z,100827.75
2023-01-20T12:07:24.353Z,100827.69
2023-01-20T12:09:54.411Z,100830.44
2023-01-20T12:12:40.794Z,100835.41
2023-01-20T12:15:33.516Z,100822.47
2023-01-20T12:18:14.692Z,100824.63
2023-01-20T12:20:59.106Z,100823.94
2023-01-20T12:24:10.827Z,100833.59
2023-01-20T12:26:37.589Z,100830.03
2023-01-20T12:29:33.595Z,100842.75
2023-01-20T12:32:00.968Z,100835.06
2023-01-20T12:34:29.556Z,100838.84
2023-01-20T12:37:07.921Z,100840.63
2023-01-20T12:39:46.494Z,100838.91
2023-01-20T12:42:22.944Z,100845.22
2023-01-20T12:45:10.968Z,100839.13
2023-01-20T12:48:22.839Z,100840.81
2023-01-20T12:50:49.600Z,100842.16
2023-01-20T12:53:19.568Z,100845.88
2023-01-20T12:55:55.692Z,100840.78
2023-01-20T12:58:57.613Z,100849.44
2023-01-20T13:01:24.392Z,100848.59
2023-01-20T13:03:57.378Z,100840.50
2023-01-20T13:06:28.043Z,100846.59
2023-01-20T13:09:24.796Z,100844.28
2023-01-20T13:12:09.866Z,100840.81
2023-01-20T13:14:43.693Z,100839.94
2023-01-20T13:17:24.048Z,100836.22
2023-01-20T13:19:51.825Z,100844.88
2023-01-20T13:22:22.879Z,100840.50
2023-01-20T13:24:52.717Z,100845.19
2023-01-20T13:27:27.472Z,100843.31
2023-01-20T13:30:04.300Z,100849.31
2023-01-20T13:32:45.263Z,100847.72
2023-01-20T13:35:18.716Z,100857.50
2023-01-20T13:37:54.304Z,100865.13
2023-01-20T13:40:33.000Z,100862.06
2023-01-20T13:42:59.623Z,100859.25
2023-01-20T13:45:27.571Z,100864.75
2023-01-20T13:47:59.957Z,100865.22
2023-01-20T13:50:34.592Z,100871.59
2023-01-20T13:53:04.160Z,100867.97
2023-01-20T13:55:43.991Z,100868.78
2023-01-20T13:58:20.601Z,100875.06
2023-01-20T14:00:53.657Z,100881.94
2023-01-20T14:03:38.646Z,100876.72
2023-01-20T14:06:20.080Z,100885.94
2023-01-20T14:08:48.866Z,100879.00
2023-01-20T14:11:23.539Z,100884.56
2023-01-20T14:13:54.274Z,100887.72
2023-01-20T14:16:30.946Z,100887.19
2023-01-20T14:18:59.678Z,100890.31
2023-01-20T14:21:30.710Z,100889.59
2023-01-20T14:23:57.947Z,100893.88
2023-01-20T14:26:29.808Z,100896.63
2023-01-20T14:29:00.162Z,100899.25
2023-01-20T14:31:45.495Z,100909.47
2023-01-20T14:34:33.106Z,100897.19
2023-01-20T14:37:03.231Z,100900.50
2023-01-20T14:39:30.389Z,100919.38
2023-01-20T14:42:01.146Z,100910.44
2023-01-20T14:44:30.042Z,100917.59
2023-01-20T14:46:58.830Z,100923.19
2023-01-20T14:49:39.403Z,100924.84
2023-01-20T14:52:07.192Z,100929.53
2023-01-20T14:54:33.715Z,100938.97
2023-01-20T14:57:22.573Z,100943.03
2023-01-20T15:00:11.219Z,100948.22
2023-01-20T15:02:39.292Z,100955.09
2023-01-20T15:05:28.956Z,100965.19
2023-01-20T15:08:18.871Z,100961.13
2023-01-20T15:10:46.318Z,100969.25
2023-01-20T15:13:27.762Z,100966.44
2023-01-20T15:16:12.842Z,100975.47
2023-01-20T15:18:39.977Z,100981.41
2023-01-20T15:21:18.293Z,100984.13
2023-01-20T15:23:51.251Z,100973.69
2023-01-20T15:26:29.266Z,100996.22
2023-01-20T15:28:57.123Z,100989.59
2023-01-20T15:31:24.284Z,100995.19
2023-01-20T15:33:51.173Z,101004.72
2023-01-20T15:36:33.113Z,101010.88
2023-01-20T15:38:59.726Z,101015.59
2023-01-20T15:41:28.172Z,101015.63
2023-01-20T15:43:54.771Z,101023.75
2023-01-20T15:46:21.722Z,101020.78
2023-01-20T15:48:48.383Z,101020.25
2023-01-20T15:51:19.161Z,101030.69
2023-01-20T15:53:46.511Z,101036.00
2023-01-20T15:56:16.532Z,101045.22
2023-01-20T15:58:43.359Z,101042.97
2023-01-20T16:01:14.820Z,101044.84
2023-01-20T16:03:43.928Z,101056.28
2023-01-20T16:06:15.711Z,101055.41
2023-01-20T16:08:49.262Z,101069.59
2023-01-20T16:11:19.805Z,101069.16
2023-01-20T16:13:46.819Z,101074.47
2023-01-20T16:16:24.353Z,101087.47
2023-01-20T16:18:51.153Z,101087.94
2023-01-20T16:21:19.523Z,101082.25
2023-01-20T16:23:49.105Z,101082.16
2023-01-20T16:26:24.083Z,101083.81
2023-01-20T16:28:52.431Z,101097.31
2023-01-20T16:31:19.693Z,101101.53
2023-01-20T16:33:53.085Z,101116.00
2023-01-20T16:36:21.747Z,101112.56
2023-01-20T16:38:49.332Z,101110.63
2023-01-20T16:41:21.712Z,101112.31
2023-01-20T16:43:48.923Z,101113.53
2023-01-20T16:46:21.282Z,101116.16
2023-01-20T16:48:47.956Z,101120.59
2023-01-20T16:51:16.863Z,101127.84
2023-01-20T16:53:45.763Z,101135.03
2023-01-20T16:56:16.731Z,101136.19
2023-01-20T16:58:43.794Z,101147.44
2023-01-20T17:01:13.628Z,101143.31
2023-01-20T17:03:41.636Z,101151.81
2023-01-20T17:06:14.449Z,101159.38
2023-01-20T17:08:46.079Z,101161.63
2023-01-20T17:11:22.559Z,101170.94
2023-01-20T17:13:58.535Z,101172.53
2023-01-20T17:16:26.556Z,101180.19
2023-01-20T17:18:55.846Z,101179.94
2023-01-20T17:21:23.232Z,101190.31
2023-01-20T17:23:52.067Z,101181.81
2023-01-20T17:26:19.427Z,101186.06
2023-01-20T17:28:46.503Z,101204.06
2023-01-20T17:31:13.692Z,101205.78
2023-01-20T17:33:52.721Z,101209.91
2023-01-20T17:36:20.449Z,101212.88
2023-01-20T17:38:47.247Z,101220.03
2023-01-20T17:41:14.658Z,101220.69
2023-01-20T17:43:44.131Z,101230.00
2023-01-20T17:46:16.033Z,101222.44
2023-01-20T17:48:43.505Z,101227.56
2023-01-20T17:51:12.153Z,101240.66
2023-01-20T17:53:39.094Z,101249.94
2023-01-20T17:56:12.421Z,101250.81
2023-01-20T17:58:41.222Z,101245.53
2023-01-20T18:01:47.343Z,101263.28
2023-01-20T18:04:15.009Z,101265.56
2023-01-20T18:06:42.017Z,101264.28
2023-01-20T18:09:08.600Z,101273.50
2023-01-20T18:11:37.101Z,101272.97
2023-01-20T18:14:04.743Z,101277.47
2023-01-20T18:16:34.124Z,101281.53
2023-01-20T18:19:01.746Z,101289.84
2023-01-20T18:21:34.967Z,101291.88
2023-01-20T18:24:02.826Z,101301.56
2023-01-20T18:26:32.271Z,101302.44
2023-01-20T18:29:01.593Z,101306.59
2023-01-20T18:31:29.572Z,101305.41
2023-01-20T18:33:58.727Z,101312.16
2023-01-20T18:36:40.799Z,101307.13
2023-01-20T18:39:11.902Z,101315.88
2023-01-20T18:41:46.243Z,101317.75
2023-01-20T18:44:13.269Z,101316.88
2023-01-20T18:46:40.604Z,101321.38
2023-01-20T18:49:09.796Z,101316.06
2023-01-20T18:51:37.373Z,101326.34
2023-01-20T18:54:10.518Z,101326.78
2023-01-20T18:56:37.774Z,101330.50
2023-01-20T18:59:13.104Z,101334.94
2023-01-20T19:01:43.949Z,101344.13
2023-01-20T19:04:12.468Z,101349.94
2023-01-20T19:06:44.606Z,101361.50
2023-01-20T19:09:12.828Z,101358.59
2023-01-20T19:11:41.050Z,101362.13
2023-01-20T19:14:11.602Z,101368.06
2023-01-20T19:16:42.077Z,101370.25
2023-01-20T19:19:10.827Z,101368.28
2023-01-20T19:21:37.644Z,101386.59
2023-01-20T19:24:07.726Z,101385.28
2023-01-20T19:26:36.108Z,101390.16
2023-01-20T19:29:06.583Z,101400.69
2023-01-20T19:31:35.929Z,101398.88
2023-01-20T19:34:02.993Z,101398.66
2023-01-20T19:36:30.116Z,101409.63
2023-01-20T19:38:56.856Z,101413.13
2023-01-20T19:41:28.354Z,101414.69
2023-01-20T19:44:03.092Z,101423.66
2023-01-20T19:46:32.288Z,101417.31
2023-01-20T19:49:00.733Z,101427.31
2023-01-20T19:51:28.360Z,101425.63
2023-01-20T19:53:58.916Z,101437.75
2023-01-20T19:56:28.322Z,101443.22
2023-01-20T19:58:55.370Z,101443.81
2023-01-20T20:01:34.503Z,101451.81
2023-01-20T20:04:09.517Z,101459.25
2023-01-20T20:06:47.615Z,101457.22
2023-01-20T20:09:20.328Z,101462.69
2023-01-20T20:11:52.707Z,101466.69
2023-01-20T20:14:23.135Z,101464.00
2023-01-20T20:16:53.642Z,101473.19
2023-01-20T20:19:20.544Z,101473.97
2023-01-20T20:21:47.553Z,101482.63
2023-01-20T20:24:15.646Z,101488.00
2023-01-20T20:26:43.082Z,101489.88
2023-01-20T20:29:10.575Z,101483.44
2023-01-20T20:31:38.265Z,101494.31
2023-01-20T20:34:07.373Z,101508.47
2023-01-20T20:36:37.452Z,101510.06
2023-01-20T20:39:05.127Z,101506.53
2023-01-20T20:41:33.226Z,101518.75
2023-01-20T20:44:01.238Z,101518.31
2023-01-20T20:46:30.364Z,101533.78
2023-01-20T20:49:02.119Z,101520.13
2023-01-20T20:51:32.406Z,101528.13
2023-01-20T20:54:01.207Z,101527.41
2023-01-20T20:56:31.387Z,101537.06
2023-01-20T20:59:02.256Z,101540.69
2023-01-20T21:01:33.409Z,101548.50
2023-01-20T21:04:01.079Z,101546.44
2023-01-20T21:06:28.291Z,101549.19
2023-01-20T21:09:01.059Z,101553.09
2023-01-20T21:11:28.794Z,101554.41
2023-01-20T21:13:57.665Z,101554.50
2023-01-20T21:16:25.365Z,101570.22
2023-01-20T21:18:53.952Z,101565.13
2023-01-20T21:21:20.820Z,101577.59
2023-01-20T21:23:50.003Z,101577.44
2023-01-20T21:26:19.275Z,101590.50
2023-01-20T21:28:50.103Z,101590.19
2023-01-20T21:31:20.769Z,101593.34
2023-01-20T21:33:53.005Z,101608.06
2023-01-20T21:36:19.981Z,101616.69
2023-01-20T21:38:48.780Z,101614.88
2023-01-20T21:41:16.536Z,101620.63
2023-01-20T21:44:03.924Z,101615.28
2023-01-20T21:46:38.657Z,101615.94
2023-01-20T21:49:25.084Z,101617.31
2023-01-20T21:52:10.884Z,101628.81
2023-01-20T21:54:39.732Z,101624.72
2023-01-20T21:57:09.019Z,101636.81
2023-01-20T21:59:38.849Z,101640.22
2023-01-20T22:02:06.334Z,101641.25
2023-01-20T22:04:33.351Z,101651.66
2023-01-20T22:07:00.301Z,101646.69
2023-01-20T22:09:26.915Z,101656.00
2023-01-20T22:11:53.501Z,101652.59
2023-01-20T22:14:20.053Z,101657.88
2023-01-20T22:16:46.875Z,101658.81
2023-01-20T22:19:14.187Z,101658.00
2023-01-20T22:21:41.361Z,101668.75
2023-01-20T22:24:08.608Z,101670.47
2023-01-20T22:26:35.436Z,101667.28
2023-01-20T22:29:04.623Z,101678.16
2023-01-20T22:31:36.955Z,101671.47
2023-01-20T22:34:05.490Z,101677.56
2023-01-20T22:36:33.803Z,101681.41
2023-01-20T22:39:04.225Z,101686.25
2023-01-20T22:41:31.169Z,101688.75
2023-01-20T22:43:58.475Z,101687.97
2023-01-20T22:46:26.860Z,101693.28
2023-01-20T22:48:55.846Z,101697.09
2023-01-20T22:51:27.434Z,101696.41
2023-01-20T22:53:55.414Z,101704.09
2023-01-20T22:56:24.591Z,101711.50
2023-01-20T22:58:51.409Z,101711.91
2023-01-20T23:01:23.963Z,101717.41
2023-01-20T23:03:58.289Z,101720.09
2023-01-20T23:06:26.442Z,101726.06
2023-01-20T23:08:53.015Z,101732.22
2023-01-20T23:11:21.547Z,101726.50
2023-01-20T23:13:48.601Z,101726.69
2023-01-20T23:16:22.233Z,101734.38
2023-01-20T23:18:50.522Z,101740.09
2023-01-20T23:21:17.701Z,101735.78
2023-01-20T23:23:44.393Z,101742.03
2023-01-20T23:26:16.169Z,101748.72
2023-01-20T23:28:43.945Z,101750.66
2023-01-20T23:31:12.562Z,101766.34
2023-01-20T23:33:41.314Z,101773.25
2023-01-20T23:36:20.720Z,101771.63
2023-01-20T23:38:49.437Z,101777.19
2023-01-20T23:41:16.409Z,101782.13
2023-01-20T23:43:45.987Z,101786.16
2023-01-20T23:46:12.705Z,101800.25
2023-01-20T23:48:39.461Z,101804.53
2023-01-20T23:51:09.601Z,101800.47
2023-01-20T23:53:38.225Z,101805.50
2023-01-20T23:56:08.070Z,101807.44
2023-01-20T23:58:34.664Z,101811.91
